Time;durP1;ratioP1;P1;durP2;ratioP2;P2;SDS_P1;SDS_P2;PMS_P1;PMS_P2;Temp;Humidity;BMP_temperature;BMP_pressure;BME280_temperature;BME280_humidity;BME280_pressure;Samples;Min_cycle;Max_cycle;Signal;HPM_P1;HPM_P2
2022/09/13 00:00:35;;;;;;;3.60;1.60;;;;;;;16.65;59.09;99002.13;5016395;28;20033;-92
2022/09/13 00:03:01;;;;;;;6.82;2.10;;;;;;;16.69;58.55;99013.97;5000155;28;20052;-92
2022/09/13 00:05:27;;;;;;;2.80;1.85;;;;;;;16.69;59.17;99010.47;4999339;28;20147;-92
2022/09/13 00:07:52;;;;;;;6.03;1.85;;;;;;;16.70;58.91;99012.03;4999879;28;20029;-92
2022/09/13 00:10:18;;;;;;;2.20;1.90;;;;;;;16.56;59.37;99006.75;5000710;28;20068;-92
2022/09/13 00:12:43;;;;;;;2.45;1.70;;;;;;;16.63;58.56;99017.97;5019874;28;20033;-94
2022/09/13 00:15:09;;;;;;;3.40;1.70;;;;;;;16.70;58.33;99012.84;5003754;28;20036;-93
2022/09/13 00:17:35;;;;;;;2.00;1.52;;;;;;;16.75;58.22;99026.28;5003109;28;20025;-92
2022/09/13 00:20:00;;;;;;;5.13;1.83;;;;;;;16.74;58.10;99021.16;5003406;28;20037;-94
2022/09/13 00:22:28;;;;;;;8.65;1.83;;;;;;;16.64;58.54;99027.69;4998191;28;20065;-93
2022/09/13 00:24:54;;;;;;;2.00;1.48;;;;;;;16.70;58.80;99022.91;4985008;28;20064;-93
2022/09/13 00:27:19;;;;;;;1.92;1.48;;;;;;;16.60;59.82;99017.78;4999782;28;20049;-92
2022/09/13 00:29:45;;;;;;;2.38;1.67;;;;;;;16.45;60.31;99003.53;4999759;28;20037;-92
2022/09/13 00:32:10;;;;;;;2.75;1.75;;;;;;;16.54;59.58;99009.78;4980171;28;20026;-93
2022/09/13 00:34:36;;;;;;;3.00;1.88;;;;;;;16.62;60.44;99020.97;4963839;28;20053;-92
2022/09/13 00:37:02;;;;;;;2.25;1.75;;;;;;;16.59;60.32;99018.91;4982581;28;20135;-93
2022/09/13 00:39:27;;;;;;;2.45;1.98;;;;;;;16.32;61.49;99018.03;4983332;28;20057;-92
2022/09/13 00:41:52;;;;;;;2.22;1.88;;;;;;;16.16;62.10;99015.78;4982108;28;20022;-93
2022/09/13 00:44:43;;;;;;;2.90;2.20;;;;;;;16.22;62.15;99034.63;4963987;28;20030;-92
2022/09/13 00:47:09;;;;;;;3.78;2.10;;;;;;;15.98;61.80;99014.09;5000464;28;20025;-93
2022/09/13 00:49:35;;;;;;;3.67;2.03;;;;;;;15.93;62.44;99023.16;4983177;28;20481;-93
2022/09/13 00:52:04;;;;;;;2.78;1.98;;;;;;;15.83;62.94;99019.91;4999200;28;20029;-93
2022/09/13 00:54:34;;;;;;;2.75;1.90;;;;;;;15.81;63.18;99014.78;5000078;28;20026;-93
2022/09/13 00:57:00;;;;;;;2.85;2.00;;;;;;;15.84;63.35;99027.75;5000123;28;20029;-92
2022/09/13 00:59:29;;;;;;;4.43;2.10;;;;;;;15.73;63.14;99019.09;4982969;28;20034;-93
2022/09/13 01:01:55;;;;;;;3.20;1.77;;;;;;;15.73;63.03;99031.88;4983328;28;20472;-93
2022/09/13 01:04:22;;;;;;;2.47;2.00;;;;;;;15.70;63.35;99018.88;4998806;28;20038;-93
2022/09/13 01:06:47;;;;;;;2.60;1.80;;;;;;;15.74;63.44;99015.25;4999124;28;20033;-93
2022/09/13 01:09:13;;;;;;;3.70;1.88;;;;;;;15.84;62.68;99011.47;4964101;28;20030;-92
2022/09/13 01:12:03;;;;;;;4.43;1.92;;;;;;;15.93;62.91;99023.16;4963581;28;20037;-93
2022/09/13 01:14:29;;;;;;;3.78;2.30;;;;;;;16.01;62.80;99016.19;4967210;28;20386;-92
2022/09/13 01:16:54;;;;;;;2.72;2.08;;;;;;;16.05;62.72;99008.22;4979575;28;20026;-93
2022/09/13 01:19:20;;;;;;;2.40;1.85;;;;;;;16.14;62.12;99009.03;4979377;28;20053;-92
2022/09/13 01:22:01;;;;;;;4.32;2.20;;;;;;;16.21;61.67;99017.53;4978456;28;20027;-93
2022/09/13 01:25:04;;;;;;;3.03;1.95;;;;;;;16.26;61.39;99024.75;4963888;28;20473;-93
2022/09/13 01:27:30;;;;;;;2.55;1.80;;;;;;;16.26;61.12;99022.81;5008679;28;20076;-93
2022/09/13 01:30:09;;;;;;;2.22;1.63;;;;;;;16.18;61.01;99015.44;5035177;28;20064;-92
2022/09/13 01:32:55;;;;;;;5.65;2.97;;;;;;;15.95;62.25;98998.41;5018597;28;20056;-92
2022/09/13 01:35:34;;;;;;;2.30;1.83;;;;;;;15.94;62.22;99021.28;5019100;28;20025;-92
2022/09/13 01:37:59;;;;;;;3.67;1.92;;;;;;;15.86;62.92;99022.81;5002434;28;20033;-93
2022/09/13 01:40:48;;;;;;;2.47;1.95;;;;;;;15.80;62.79;99013.22;5035889;28;20479;-96
2022/09/13 01:43:25;;;;;;;3.22;1.95;;;;;;;15.77;62.61;99000.25;5031351;28;20435;-95
2022/09/13 01:46:16;;;;;;;2.60;1.90;;;;;;;15.73;63.03;98988.44;5044362;28;20025;-96
2022/09/13 01:49:04;;;;;;;2.33;1.70;;;;;;;15.69;63.15;98985.50;5027141;28;20116;-96
2022/09/13 01:51:32;;;;;;;2.70;2.10;;;;;;;15.71;63.30;98982.50;5042660;28;20034;-96
2022/09/13 01:54:12;;;;;;;2.55;1.88;;;;;;;16.01;62.72;99012.66;5008243;28;20033;-96
2022/09/13 01:57:00;;;;;;;4.00;1.80;;;;;;;15.79;63.75;98995.31;5023795;28;20029;-96
2022/09/13 02:00:03;;;;;;;2.80;1.77;;;;;;;15.90;64.21;99014.88;5017921;28;20041;-96
2022/09/13 02:02:54;;;;;;;2.47;1.98;;;;;;;15.63;64.99;98989.47;5039585;28;20040;-96
2022/09/13 02:05:58;;;;;;;4.07;2.03;;;;;;;15.73;64.81;99019.09;5023172;28;20124;-96
2022/09/13 02:08:50;;;;;;;2.45;1.83;;;;;;;15.69;64.55;99020.00;5034824;28;20041;-93
2022/09/13 02:11:16;;;;;;;3.13;1.52;;;;;;;15.54;64.75;99013.84;5017644;28;20120;-92
2022/09/13 02:13:50;;;;;;;2.80;2.10;;;;;;;15.56;64.63;99008.91;4982115;28;20035;-93
2022/09/13 02:16:32;;;;;;;2.97;2.33;;;;;;;15.54;66.08;99015.72;4961856;28;20026;-93
2022/09/13 02:19:00;;;;;;;4.57;2.03;;;;;;;15.45;67.01;99012.19;5015193;28;20087;-92
2022/09/13 02:21:30;;;;;;;5.82;2.17;;;;;;;15.37;66.99;99000.16;5000339;28;20083;-92
2022/09/13 02:24:01;;;;;;;4.43;2.15;;;;;;;15.34;66.67;99003.50;5000188;28;20032;-93
2022/09/13 02:26:27;;;;;;;3.53;2.13;;;;;;;15.33;67.17;99004.59;5016899;28;20147;-92
2022/09/13 02:28:53;;;;;;;6.28;2.38;;;;;;;15.30;66.70;98994.38;5000349;28;20056;-93
2022/09/13 02:31:25;;;;;;;3.03;2.30;;;;;;;15.30;66.35;98999.81;5002311;28;20403;-89
2022/09/13 02:34:06;;;;;;;2.47;1.83;;;;;;;15.19;67.09;98991.13;5019275;28;20040;-89
2022/09/13 02:36:37;;;;;;;3.05;2.05;;;;;;;15.23;66.97;99005.66;5020583;28;20100;-88
2022/09/13 02:39:04;;;;;;;3.15;2.13;;;;;;;15.31;66.97;99004.09;5018476;28;20040;-89
2022/09/13 02:41:45;;;;;;;3.00;2.17;;;;;;;15.23;67.21;99000.25;4999394;28;20022;-89
2022/09/13 02:44:25;;;;;;;3.05;2.08;;;;;;;15.30;67.16;99007.94;4992501;28;20034;-89
2022/09/13 02:47:20;;;;;;;2.30;1.77;;;;;;;15.31;67.30;99004.88;4978526;28;20026;-89
2022/09/13 02:50:12;;;;;;;4.20;2.03;;;;;;;15.23;66.80;98996.69;5031927;28;20411;-89
2022/09/13 02:52:57;;;;;;;3.30;2.00;;;;;;;15.38;66.80;99004.47;5003006;28;20068;-89
2022/09/13 02:55:39;;;;;;;3.72;2.40;;;;;;;15.43;66.98;99009.78;5033465;28;20025;-89
2022/09/13 02:58:33;;;;;;;2.20;1.75;;;;;;;15.41;67.49;99008.47;5016695;28;20033;-89
2022/09/13 03:01:00;;;;;;;3.47;2.30;;;;;;;15.29;68.24;98992.75;5032477;28;20033;-89
2022/09/13 03:03:25;;;;;;;3.60;2.08;;;;;;;15.26;67.75;98994.19;5019233;28;20033;-89
2022/09/13 03:05:52;;;;;;;3.40;2.30;;;;;;;15.18;68.01;98997.63;4980149;28;20171;-89
2022/09/13 03:08:17;;;;;;;2.90;2.20;;;;;;;15.10;68.21;98993.75;5008844;28;20025;-89
2022/09/13 03:11:01;;;;;;;4.32;2.25;;;;;;;15.25;68.30;99011.56;5015897;28;20029;-89
2022/09/13 03:13:44;;;;;;;2.83;2.30;;;;;;;15.37;67.18;99005.56;5033621;28;20399;-89
2022/09/13 03:16:23;;;;;;;4.28;2.25;;;;;;;15.43;67.23;99012.47;5016689;28;20026;-93
2022/09/13 03:19:11;;;;;;;6.80;2.90;;;;;;;15.42;67.19;99019.03;5016163;28;20048;-92
2022/09/13 03:21:40;;;;;;;3.67;2.28;;;;;;;15.41;66.66;99022.84;5032872;28;20025;-93
2022/09/13 03:24:23;;;;;;;5.70;2.25;;;;;;;15.46;66.09;98998.31;5016253;28;20022;-94
2022/09/13 03:27:13;;;;;;;4.07;2.00;;;;;;;15.53;66.18;99031.22;5015741;28;20526;-93
2022/09/13 03:29:40;;;;;;;5.18;2.30;;;;;;;15.28;66.53;98994.69;5032169;28;20492;-92
2022/09/13 03:32:28;;;;;;;3.40;1.92;;;;;;;15.33;65.92;99004.59;5016089;28;20460;-92
2022/09/13 03:35:06;;;;;;;4.22;2.20;;;;;;;15.38;66.53;99019.94;5032945;28;20049;-92
2022/09/13 03:37:35;;;;;;;4.35;2.50;;;;;;;15.26;66.89;99015.88;5031944;28;20028;-92
2022/09/13 03:40:32;;;;;;;5.22;2.63;;;;;;;15.26;67.07;99031.38;4999823;28;20549;-92
2022/09/13 03:43:00;;;;;;;6.82;2.33;;;;;;;15.10;67.11;99020.84;5021420;28;20037;-91
2022/09/13 03:45:27;;;;;;;2.92;2.28;;;;;;;15.17;67.40;99034.00;5016513;28;20025;-91
2022/09/13 03:47:53;;;;;;;3.00;2.10;;;;;;;15.09;67.34;99023.91;5016708;28;20026;-92
2022/09/13 03:50:20;;;;;;;4.60;2.20;;;;;;;15.18;66.53;99023.97;5033340;28;20087;-92
2022/09/13 03:52:46;;;;;;;4.30;2.15;;;;;;;15.24;66.25;99023.53;4987934;28;20022;-92
2022/09/13 03:55:12;;;;;;;3.05;2.30;;;;;;;15.02;66.92;99012.66;4961699;28;20169;-92
2022/09/13 03:57:37;;;;;;;6.75;2.95;;;;;;;15.03;67.25;99034.06;4965477;28;20485;-92
2022/09/13 04:00:04;;;;;;;5.35;2.40;;;;;;;15.02;67.26;99023.50;4977453;28;20022;-91
2022/09/13 04:02:29;;;;;;;5.88;2.80;;;;;;;14.94;67.17;99004.16;5013064;28;20021;-92
2022/09/13 04:04:55;;;;;;;4.97;3.03;;;;;;;14.85;68.33;99005.97;4980212;28;20555;-92
2022/09/13 04:07:22;;;;;;;4.55;2.45;;;;;;;14.92;67.77;99009.09;4977012;28;20037;-92
2022/09/13 04:09:47;;;;;;;6.00;3.10;;;;;;;14.82;68.05;99012.03;4984516;28;20029;-92
2022/09/13 04:12:14;;;;;;;6.60;3.22;;;;;;;14.79;68.41;99007.19;5013676;28;20111;-92
2022/09/13 04:14:40;;;;;;;5.30;2.97;;;;;;;14.81;67.96;99010.41;4999597;28;20049;-92
2022/09/13 04:17:06;;;;;;;7.85;3.50;;;;;;;14.72;68.51;99010.34;4998553;28;20105;-92
2022/09/13 04:19:32;;;;;;;4.28;2.95;;;;;;;14.70;69.15;99014.47;4999215;28;20025;-93
2022/09/13 04:21:57;;;;;;;3.50;2.60;;;;;;;14.71;69.05;99027.72;5010411;28;20112;-93
2022/09/13 04:24:25;;;;;;;6.45;2.95;;;;;;;14.77;68.20;99016.75;4979541;28;20092;-95
2022/09/13 04:26:52;;;;;;;7.18;3.35;;;;;;;14.73;68.63;99019.25;4980466;28;20041;-93
2022/09/13 04:29:17;;;;;;;7.90;3.15;;;;;;;14.71;68.86;99016.06;4981459;28;20092;-93
2022/09/13 04:31:46;;;;;;;7.68;3.20;;;;;;;14.90;68.20;99038.41;4997178;28;20432;-91
2022/09/13 04:34:21;;;;;;;6.72;3.25;;;;;;;14.99;67.65;99033.06;4979562;28;20025;-95
2022/09/13 04:36:46;;;;;;;5.93;2.83;;;;;;;14.80;67.35;99008.03;4980333;28;20124;-93
2022/09/13 04:39:14;;;;;;;11.90;3.67;;;;;;;14.93;67.26;99026.94;4987637;28;20019;-93
2022/09/13 04:41:43;;;;;;;6.00;2.83;;;;;;;15.06;66.02;99030.72;4961154;28;20110;-96
2022/09/13 04:44:09;;;;;;;5.03;2.17;;;;;;;15.06;64.14;99017.16;4977415;28;20081;-93
2022/09/13 04:46:34;;;;;;;5.68;3.40;;;;;;;15.18;64.51;99024.75;4988000;28;20034;-96
2022/09/13 04:49:00;;;;;;;3.55;2.85;;;;;;;15.14;63.94;99008.28;4976442;28;20054;-91
2022/09/13 04:54:57;;;;;;;7.22;2.78;;;;;;;15.46;63.93;99046.31;4998239;28;20099;-93
2022/09/13 04:57:22;;;;;;;8.57;3.75;;;;;;;15.48;64.69;99041.41;4988227;28;20018;-90
2022/09/13 04:59:51;;;;;;;5.32;2.30;;;;;;;15.54;63.19;99027.41;4980678;28;20493;-93
2022/09/13 05:02:16;;;;;;;4.38;2.60;;;;;;;15.71;63.11;99037.56;4968453;28;20507;-91
2022/09/13 05:04:42;;;;;;;5.95;2.85;;;;;;;15.68;63.39;99016.47;4980396;28;20027;-90
2022/09/13 05:07:07;;;;;;;11.48;3.30;;;;;;;15.86;62.86;99039.13;4980380;28;20409;-90
2022/09/13 05:09:33;;;;;;;9.02;5.60;;;;;;;16.07;62.21;99052.16;4996314;28;20137;-88
2022/09/13 05:11:59;;;;;;;6.15;4.65;;;;;;;16.11;61.51;99047.69;4985176;28;20022;-91
2022/09/13 05:14:33;;;;;;;4.30;2.80;;;;;;;16.28;61.59;99057.81;4963721;28;20053;-91
2022/09/13 05:16:59;;;;;;;4.65;3.10;;;;;;;16.11;63.29;99045.78;4984909;28;20400;-93
2022/09/13 05:19:27;;;;;;;8.40;3.28;;;;;;;16.30;63.02;99053.66;4998731;28;20030;-93
2022/09/13 05:21:55;;;;;;;4.82;2.10;;;;;;;16.31;60.15;99027.31;4981339;28;20018;-91
2022/09/13 05:24:24;;;;;;;3.60;2.67;;;;;;;16.61;60.01;99054.75;4967033;28;20024;-91
2022/09/13 05:26:52;;;;;;;3.92;2.88;;;;;;;16.36;61.42;99025.25;4993671;28;20551;-91
2022/09/13 05:29:20;;;;;;;4.25;2.47;;;;;;;16.59;60.68;99043.38;4929547;28;20050;-92
2022/09/13 05:31:45;;;;;;;5.82;2.40;;;;;;;16.70;59.48;99040.03;4962433;28;20026;-92
2022/09/13 05:34:18;;;;;;;4.93;3.08;;;;;;;16.54;61.07;99058.72;4946031;28;20030;-92
2022/09/13 05:36:44;;;;;;;5.47;3.38;;;;;;;16.71;60.62;99066.09;4945309;28;20030;-89
2022/09/13 05:39:39;;;;;;;3.13;2.22;;;;;;;16.62;59.00;99037.28;4961745;28;20512;-90
2022/09/13 05:42:07;;;;;;;6.38;2.40;;;;;;;16.59;58.67;99046.88;4953287;28;20041;-92
2022/09/13 05:44:33;;;;;;;7.00;2.15;;;;;;;16.70;58.13;99041.94;4947208;28;20034;-94
2022/09/13 05:47:17;;;;;;;9.50;6.00;;;;;;;16.68;59.21;99044.97;4961484;28;20038;-91
2022/09/13 05:50:02;;;;;;;4.93;3.50;;;;;;;16.92;58.11;99066.34;4974692;28;20053;-92
2022/09/13 05:52:53;;;;;;;5.25;4.03;;;;;;;16.86;58.13;99047.78;4957971;28;20120;-90
2022/09/13 05:55:33;;;;;;;4.07;2.97;;;;;;;16.94;57.87;99036.91;4935574;28;20023;-92
2022/09/13 05:58:40;;;;;;;9.57;6.18;;;;;;;17.02;58.00;99023.63;4951902;28;20030;-92
2022/09/13 06:01:27;;;;;;;8.45;5.35;;;;;;;17.33;58.17;99053.41;4976159;28;20045;-92
2022/09/13 06:03:54;;;;;;;3.67;2.55;;;;;;;17.29;56.39;99031.47;4942536;28;20026;-91
2022/09/13 06:06:29;;;;;;;3.15;2.00;;;;;;;17.30;56.45;99029.53;4942725;28;20039;-92
2022/09/13 06:08:56;;;;;;;2.20;1.63;;;;;;;17.41;56.20;99035.44;4954994;28;20030;-93
2022/09/13 06:11:25;;;;;;;7.25;2.70;;;;;;;17.25;57.57;99040.59;4952344;28;20026;-91
2022/09/13 06:13:53;;;;;;;3.35;2.00;;;;;;;17.36;57.06;99050.81;4932154;28;20023;-91
2022/09/13 06:16:26;;;;;;;6.85;3.28;;;;;;;17.48;57.21;99041.22;4941851;28;20031;-92
2022/09/13 06:18:51;;;;;;;9.98;3.80;;;;;;;17.56;56.58;99046.63;4935126;28;20035;-92
2022/09/13 06:21:19;;;;;;;64.22;5.82;;;;;;;17.72;57.36;99065.19;4953548;28;20050;-93
2022/09/13 06:23:49;;;;;;;11.52;2.60;;;;;;;17.59;56.56;99031.56;4945192;28;20037;-91
2022/09/13 06:29:17;;;;;;;6.82;2.08;;;;;;;17.86;55.47;99038.59;5019886;28;20044;-90
2022/09/13 06:31:53;;;;;;;4.45;2.10;;;;;;;18.08;55.57;99059.34;5013316;28;20026;-96
2022/09/13 06:34:19;;;;;;;2.63;1.90;;;;;;;18.02;54.90;99063.38;4995314;28;20025;-95
2022/09/13 06:41:23;;;;;;;5.13;1.80;;;;;;;18.19;53.97;99043.44;4980811;28;20054;-95
2022/09/13 06:43:57;;;;;;;3.30;2.20;;;;;;;18.31;53.98;99053.66;4896974;29;20048;-96
2022/09/13 06:46:30;;;;;;;25.20;17.92;;;;;;;18.49;54.02;99063.34;4865347;29;20068;-95
2022/09/13 06:49:30;;;;;;;7.88;4.30;;;;;;;18.77;53.27;99080.03;4936265;29;20042;-95
2022/09/13 07:00:34;;;;;;;3.70;1.50;;;;;;;19.00;48.40;99071.56;5018765;28;20041;-95
2022/09/13 07:03:26;;;;;;;3.65;1.88;;;;;;;19.10;47.72;99070.38;5001059;28;20018;-95
2022/09/13 07:05:53;;;;;;;2.85;1.58;;;;;;;19.21;47.64;99090.66;5005613;28;20030;-96
2022/09/13 07:08:22;;;;;;;2.00;1.40;;;;;;;19.15;48.03;99081.09;4985901;28;20030;-96
2022/09/13 07:10:48;;;;;;;2.55;1.40;;;;;;;19.04;48.24;99088.88;4955197;28;20724;-91
2022/09/13 07:17:42;;;;;;;;;;;;;;;;;;;;;
2022/09/13 07:24:08;;;;;;;3.67;2.30;;;;;;;19.63;47.96;99125.34;4937135;29;20042;-96
2022/09/13 07:30:28;;;;;;;2.25;1.60;;;;;;;19.60;45.52;99091.31;4954749;29;20119;-96
2022/09/13 07:35:34;;;;;;;3.00;1.50;;;;;;;19.55;46.55;99084.13;5712475;23;20078;-96
2022/09/13 07:37:59;;;;;;;1.80;1.40;;;;;;;19.80;46.27;99111.56;4952465;28;20042;-95
2022/09/13 07:40:25;;;;;;;2.58;1.30;;;;;;;19.86;46.15;99115.69;4966401;28;20397;-93
2022/09/13 07:43:01;;;;;;;;;;;;;;;;;;;;;
2022/09/13 07:45:35;;;;;;;2.30;1.77;;;;;;;20.06;45.95;99096.84;4983516;28;20098;-96
2022/09/13 07:48:05;;;;;;;3.30;1.60;;;;;;;20.09;46.69;99085.25;4950148;28;20030;-96
2022/09/13 07:50:30;;;;;;;3.00;1.60;;;;;;;20.18;46.33;99080.47;4945738;28;20034;-91
2022/09/13 07:52:59;;;;;;;1.92;1.30;;;;;;;20.25;46.08;99086.16;4960248;28;20050;-91
2022/09/13 07:55:39;;;;;;;2.58;1.50;;;;;;;20.35;45.57;99093.13;4969962;28;20034;-96
2022/09/13 07:58:11;;;;;;;3.80;1.40;;;;;;;20.22;44.84;99083.31;4974720;28;20086;-95
2022/09/13 08:00:40;;;;;;;2.35;1.50;;;;;;;20.43;44.48;99102.38;4956489;28;20038;-96
2022/09/13 08:06:50;;;;;;;2.03;1.70;;;;;;;20.53;45.22;99101.91;5004138;28;20049;-94
2022/09/13 08:09:55;;;;;;;3.05;1.60;;;;;;;20.35;45.21;99084.91;4957411;28;20037;-95
2022/09/13 08:13:04;;;;;;;2.22;1.60;;;;;;;20.60;44.67;99121.31;4989411;28;20121;-96
2022/09/13 08:15:39;;;;;;;1.52;1.20;;;;;;;20.49;43.76;99098.25;4916848;29;20039;-94
2022/09/13 08:18:08;;;;;;;4.35;2.45;;;;;;;20.57;42.92;99098.16;4890860;29;20036;-93
2022/09/13 08:20:44;;;;;;;3.75;2.67;;;;;;;20.71;42.96;99100.56;4894524;29;20103;-95
2022/09/13 08:23:19;;;;;;;3.45;1.20;;;;;;;20.84;42.82;99098.63;4891429;29;20051;-93
2022/09/13 08:25:48;;;;;;;3.13;1.50;;;;;;;20.73;42.81;99084.63;4906431;29;20039;-95
2022/09/13 08:32:03;;;;;;;4.07;1.50;;;;;;;20.79;42.73;99082.41;4866081;29;20033;-94
2022/09/13 08:34:32;;;;;;;2.28;1.15;;;;;;;20.87;40.72;99086.97;4873430;29;20095;-96
2022/09/13 08:40:21;;;;;;;2.92;1.00;;;;;;;20.96;40.59;99084.13;4885858;29;20071;-96
2022/09/13 08:50:12;;;;;;;8.65;2.92;;;;;;;21.16;41.87;99074.16;4902819;29;20132;-96
2022/09/13 08:53:01;;;;;;;3.75;1.75;;;;;;;21.30;40.91;99087.47;4889775;29;20048;-95
2022/09/13 08:55:34;;;;;;;1.58;1.05;;;;;;;21.33;39.30;99084.84;4890614;29;20033;-96
2022/09/13 08:58:48;;;;;;;1.95;1.10;;;;;;;21.23;40.19;99090.81;4905056;29;20043;-96
2022/09/13 09:01:36;;;;;;;1.58;1.00;;;;;;;21.39;39.71;99079.88;4993697;28;20031;-96
2022/09/13 09:04:27;;;;;;;6.25;3.70;;;;;;;21.34;39.58;99041.81;4994697;28;20062;-96
2022/09/13 09:07:09;;;;;;;6.65;4.53;;;;;;;21.27;39.91;99047.06;5380201;23;20066;-93
2022/09/13 09:09:40;;;;;;;3.03;2.05;;;;;;;21.48;39.47;99061.41;4972530;28;20049;-95
2022/09/13 09:12:36;;;;;;;1.67;1.30;;;;;;;21.52;39.58;99048.59;4951188;28;20053;-93
2022/09/13 09:15:04;;;;;;;1.30;0.90;;;;;;;21.81;38.29;99063.09;4985241;28;20113;-93
2022/09/13 09:17:52;;;;;;;2.03;1.20;;;;;;;21.64;38.16;99053.22;4985183;28;20027;-94
2022/09/13 09:20:32;;;;;;;2.08;1.27;;;;;;;21.40;38.55;99038.47;4964923;28;20027;-91
2022/09/13 09:23:22;;;;;;;2.95;1.88;;;;;;;21.49;38.90;99024.63;4966917;28;20461;-95
2022/09/13 09:26:28;;;;;;;2.78;2.08;;;;;;;21.55;38.74;99025.19;4984701;28;20022;-93
2022/09/13 09:28:59;;;;;;;1.75;1.10;;;;;;;21.63;37.95;99037.16;4891963;28;20040;-96
2022/09/13 09:31:41;;;;;;;2.08;1.20;;;;;;;21.80;38.47;99051.31;4950860;28;20121;-94
2022/09/13 09:34:21;;;;;;;2.47;1.50;;;;;;;21.76;38.35;99042.19;4956528;28;20030;-96
2022/09/13 09:37:20;;;;;;;2.10;1.15;;;;;;;21.76;37.82;99046.88;4983255;28;20027;-94
2022/09/13 09:39:45;;;;;;;2.28;1.20;;;;;;;21.64;38.03;99033.25;4963692;28;20038;-92
2022/09/13 09:42:23;;;;;;;1.52;1.10;;;;;;;21.69;37.71;99020.09;4949269;28;20477;-93
2022/09/13 09:44:56;;;;;;;2.30;1.83;;;;;;;21.74;38.98;99013.56;4978549;28;20029;-92
2022/09/13 09:47:25;;;;;;;1.83;1.20;;;;;;;21.59;38.76;99029.63;4962630;28;20063;-95
2022/09/13 09:50:10;;;;;;;2.05;1.20;;;;;;;21.53;38.63;99032.97;4982631;28;20013;-95
2022/09/13 09:53:08;;;;;;;1.80;1.10;;;;;;;21.38;38.86;99024.31;4967645;28;20123;-94
2022/09/13 09:55:50;;;;;;;3.35;1.20;;;;;;;21.47;38.59;99007.75;5001490;28;20029;-93
2022/09/13 09:58:41;;;;;;;1.92;1.10;;;;;;;21.46;38.60;99016.31;4968585;28;20025;-92
2022/09/13 10:01:27;;;;;;;2.25;1.30;;;;;;;21.49;37.89;99027.38;4983199;28;20022;-93
2022/09/13 10:04:03;;;;;;;1.80;1.27;;;;;;;21.60;38.66;99038.63;4971833;28;20029;-90
2022/09/13 10:06:29;;;;;;;2.50;1.00;;;;;;;21.61;37.77;99015.56;4961093;28;20026;-90
2022/09/13 10:09:06;;;;;;;1.60;1.20;;;;;;;21.63;37.48;99024.22;4928782;28;20046;-92
2022/09/13 10:11:58;;;;;;;2.08;1.17;;;;;;;21.80;35.77;99010.19;4956732;28;20035;-93
2022/09/13 10:15:02;;;;;;;1.75;1.02;;;;;;;21.93;36.11;99040.25;4956292;28;20413;-91
2022/09/13 10:21:16;;;;;;;2.15;1.00;;;;;;;21.94;34.24;99033.66;4882270;29;20033;-95
2022/09/13 10:23:42;;;;;;;1.15;0.90;;;;;;;21.99;34.61;99031.41;4882955;29;20062;-92
2022/09/13 10:26:22;;;;;;;2.05;1.20;;;;;;;21.95;34.68;98996.84;4870273;29;20116;-93
2022/09/13 10:28:51;;;;;;;2.05;1.25;;;;;;;22.20;33.84;99031.19;4886800;29;20380;-95
2022/09/13 10:31:17;;;;;;;1.90;1.45;;;;;;;21.99;34.87;98995.00;4911195;28;20054;-94
2022/09/13 10:33:49;;;;;;;2.58;1.20;;;;;;;22.19;34.19;99021.34;4959680;28;20031;-93
2022/09/13 10:36:20;;;;;;;2.00;1.10;;;;;;;22.07;33.39;99001.44;4965367;28;20057;-91
2022/09/13 10:39:00;;;;;;;4.00;2.20;;;;;;;22.25;33.41;99019.16;4963799;28;20037;-94
2022/09/13 10:48:08;;;;;;;3.85;1.38;;;;;;;22.78;32.95;99007.81;5361885;23;20050;-95
2022/09/13 10:50:41;;;;;;;3.40;1.08;;;;;;;22.88;32.40;98993.50;4970952;28;20121;-94
2022/09/13 10:53:32;;;;;;;2.35;1.63;;;;;;;23.10;33.30;98992.03;4968111;28;20029;-93
2022/09/13 10:56:39;;;;;;;;;;;;;;;;;;;;;
2022/09/13 10:59:37;;;;;;;3.30;2.38;;;;;;;23.65;33.58;99013.88;4902262;29;20040;-96
2022/09/13 11:02:26;;;;;;;5.40;3.58;;;;;;;23.74;33.54;98995.22;4923541;29;20044;-95
2022/09/13 11:08:23;;;;;;;2.47;1.20;;;;;;;23.56;32.94;99008.63;4928682;29;20056;-96
2022/09/13 11:11:22;;;;;;;1.75;1.15;;;;;;;23.42;32.71;99010.31;4958939;28;20061;-96
2022/09/13 11:20:57;;;;;;;2.35;1.30;;;;;;;23.37;33.61;98990.22;4974465;28;20066;-93
2022/09/13 11:23:41;;;;;;;3.58;1.40;;;;;;;23.46;33.59;99000.97;4941306;28;20041;-92
2022/09/13 11:26:32;;;;;;;1.50;1.10;;;;;;;23.42;32.48;98982.84;4974045;28;20057;-94
2022/09/13 11:29:19;;;;;;;1.65;0.95;;;;;;;23.55;32.78;98993.31;4962985;28;20038;-94
2022/09/13 11:35:17;;;;;;;4.97;3.42;;;;;;;23.66;32.55;98979.75;4926233;29;20032;-95
2022/09/13 11:38:27;;;;;;;;;;;;;;;;;;;;;
2022/09/13 11:48:11;;;;;;;1.77;1.00;;;;;;;23.78;32.98;98984.28;5003606;28;20060;-93
2022/09/13 11:54:59;;;;;;;;;;;;;;;;;;;;;
2022/09/13 12:05:07;;;;;;;3.28;1.88;;;;;;;23.50;33.00;98979.84;4926212;29;20043;-95
2022/09/13 12:14:55;;;;;;;1.73;0.80;;;;;;;23.48;32.15;98965.69;4833930;29;20116;-94
2022/09/13 12:20:59;;;;;;;14.27;10.77;;;;;;;23.47;33.04;98968.78;4828672;29;20121;-93
2022/09/13 12:23:50;;;;;;;5.15;1.45;;;;;;;23.48;31.34;98953.91;4841118;29;20037;-93
2022/09/13 12:29:44;;;;;;;2.83;1.70;;;;;;;23.63;31.51;98957.69;4884451;29;20036;-92
2022/09/13 12:32:13;;;;;;;2.47;1.10;;;;;;;23.54;30.64;98958.72;4867658;29;20067;-90
2022/09/13 12:38:22;;;;;;;2.22;1.10;;;;;;;23.45;31.25;98962.84;4898733;29;20032;-90
2022/09/13 12:40:53;;;;;;;1.98;0.95;;;;;;;23.39;30.99;98970.63;4884598;29;20032;-94
2022/09/13 12:43:45;;;;;;;1.67;1.08;;;;;;;23.30;30.72;98967.28;4900533;29;20147;-94
2022/09/13 12:46:23;;;;;;;;;;;;;;;23.24;30.33;98966.00;4947091;28;20031;-92
2022/09/13 12:49:25;;;;;;;1.17;1.00;;;;;;;23.16;30.63;98923.91;4966231;28;19934;-94
2022/09/13 12:52:54;;;;;;;1.80;1.33;;;;;;;23.44;31.87;98959.31;4990015;28;20111;-96
2022/09/13 12:55:42;;;;;;;;;;;;;;;;;;;;;
2022/09/13 12:58:42;;;;;;;1.42;0.98;;;;;;;23.36;31.86;98960.34;4949154;28;20052;-94
2022/09/13 13:01:24;;;;;;;1.17;1.00;;;;;;;23.39;31.12;98943.16;4982504;28;20038;-95
2022/09/13 13:03:56;;;;;;;2.28;1.10;;;;;;;23.48;31.71;98945.66;4949622;28;20030;-95
2022/09/13 13:06:31;;;;;;;3.45;1.30;;;;;;;23.56;31.12;98936.38;4965327;28;20061;-92
2022/09/13 13:08:58;;;;;;;2.85;1.42;;;;;;;23.60;30.77;98932.53;4950466;28;20033;-95
2022/09/13 13:11:25;;;;;;;1.98;1.20;;;;;;;23.45;30.24;98919.72;4949820;28;20026;-94
2022/09/13 13:13:59;;;;;;;5.22;0.90;;;;;;;23.42;29.99;98934.16;4950735;28;20018;-94
2022/09/13 13:16:28;;;;;;;1.60;1.05;;;;;;;23.47;29.59;98924.81;4948754;28;20053;-92
2022/09/13 13:18:59;;;;;;;5.15;1.70;;;;;;;23.48;31.17;98940.16;4947921;28;20412;-90
2022/09/13 13:21:35;;;;;;;2.20;1.58;;;;;;;23.62;30.75;98923.91;4974741;28;20033;-89
2022/09/13 13:24:16;;;;;;;2.05;1.00;;;;;;;23.95;28.97;98955.53;4976908;28;20520;-92
2022/09/13 13:26:47;;;;;;;1.70;1.00;;;;;;;23.99;29.37;98953.63;4998567;28;20037;-89
2022/09/13 14:18:56;;;;;;;;;;;;;;;23.77;30.27;98978.00;5214153;23;20474;-93
2022/09/13 14:21:39;;;;;;;3.85;0.98;;;;;;;23.80;30.51;98976.47;4948651;28;19914;-96
2022/09/13 14:24:22;;;;;;;1.77;0.90;;;;;;;23.90;30.69;98975.06;4959907;28;20045;-93
2022/09/13 14:27:38;;;;;;;1.98;1.10;;;;;;;24.11;30.25;98974.59;4927142;28;20037;-94
2022/09/13 14:37:16;;;;;;;1.80;0.90;;;;;;;23.72;30.62;98961.78;4920614;29;20067;-96
2022/09/13 14:40:06;;;;;;;4.85;0.85;;;;;;;23.85;31.03;98987.16;4866057;29;20036;-91
2022/09/13 14:42:53;;;;;;;6.68;4.50;;;;;;;23.74;32.09;98972.41;4902712;29;20039;-94
2022/09/13 14:52:30;;;;;;;2.92;1.20;;;;;;;23.59;31.32;98947.44;4859838;29;20387;-95
2022/09/13 14:55:29;;;;;;;3.28;1.25;;;;;;;23.58;32.03;98948.59;4848146;29;20068;-94
2022/09/13 14:58:53;;;;;;;4.15;1.30;;;;;;;23.71;31.27;98982.19;4913497;29;20131;-95
2022/09/13 15:01:21;;;;;;;1.40;1.00;;;;;;;23.44;31.28;98969.53;4904261;29;20498;-94
2022/09/13 15:03:47;;;;;;;2.22;1.02;;;;;;;23.54;31.57;98979.91;4870311;29;20047;-94
2022/09/13 15:06:26;;;;;;;1.48;1.00;;;;;;;23.48;31.15;98975.88;4885764;29;20423;-94
2022/09/13 15:08:54;;;;;;;3.08;1.20;;;;;;;23.47;31.58;98982.53;4870511;29;20047;-93
2022/09/13 15:11:34;;;;;;;4.50;2.03;;;;;;;23.46;31.80;98979.00;4885764;29;20204;-95
2022/09/13 15:14:28;;;;;;;1.50;1.02;;;;;;;23.47;30.90;98983.34;4872472;29;20028;-94
2022/09/13 15:17:08;;;;;;;1.73;1.00;;;;;;;23.22;30.82;98976.56;4892252;29;20067;-94
2022/09/13 15:28:43;;;;;;;4.05;1.00;;;;;;;23.06;30.53;98974.69;5620525;23;20037;-92